createdAt,value
2019-03-18T00:00:10.013Z,77.80
2019-03-18T00:02:39.345Z,79.00
2019-03-18T00:05:09.124Z,79.50
2019-03-18T00:07:38.413Z,79.50
2019-03-18T00:10:07.949Z,79.40
2019-03-18T00:12:37.244Z,79.80
2019-03-18T00:15:07.074Z,80.00
2019-03-18T00:17:36.357Z,80.00
2019-03-18T00:20:05.845Z,79.60
2019-03-18T00:22:35.158Z,79.50
2019-03-18T00:25:04.760Z,79.30
2019-03-18T00:27:35.012Z,78.50
2019-03-18T00:30:05.126Z,78.50
2019-03-18T00:32:34.505Z,78.70
2019-03-18T00:35:04.487Z,77.50
2019-03-18T00:37:33.820Z,77.20
2019-03-18T00:40:03.118Z,77.20
2019-03-18T00:42:32.520Z,77.50
2019-03-18T00:45:13.849Z,77.60
2019-03-18T00:47:32.891Z,77.70
2019-03-18T00:50:02.197Z,77.60
2019-03-18T00:52:31.529Z,77.30
2019-03-18T00:55:00.812Z,77.00
2019-03-18T00:57:30.129Z,77.00
2019-03-18T00:59:59.466Z,76.80
2019-03-18T01:02:28.802Z,76.70
2019-03-18T01:04:58.111Z,76.40
2019-03-18T01:07:27.442Z,76.70
2019-03-18T01:09:57.065Z,76.40
2019-03-18T01:12:26.456Z,76.40
2019-03-18T01:14:55.773Z,76.00
2019-03-18T01:17:25.064Z,76.30
2019-03-18T01:19:54.399Z,76.90
2019-03-18T01:22:23.737Z,76.40
2019-03-18T01:24:53.123Z,76.20
2019-03-18T01:27:25.283Z,75.80
2019-03-18T01:29:53.505Z,76.40
2019-03-18T01:32:22.855Z,76.00
2019-03-18T01:34:52.135Z,75.50
2019-03-18T01:37:21.491Z,75.70
2019-03-18T01:39:50.838Z,75.80
2019-03-18T01:42:20.169Z,75.80
2019-03-18T01:44:49.471Z,75.90
2019-03-18T01:47:18.770Z,75.80
2019-03-18T01:49:48.091Z,75.60
2019-03-18T01:52:17.434Z,75.00
2019-03-18T01:54:46.765Z,75.50
2019-03-18T01:57:16.104Z,75.90
2019-03-18T01:59:45.445Z,75.60
2019-03-18T02:02:14.742Z,75.80
2019-03-18T02:04:44.025Z,75.50
2019-03-18T02:07:13.381Z,75.70
2019-03-18T02:09:42.714Z,75.10
2019-03-18T02:12:12.002Z,74.90
2019-03-18T02:14:41.289Z,74.40
2019-03-18T02:17:10.646Z,74.70
2019-03-18T02:19:39.928Z,74.70
2019-03-18T02:22:09.305Z,74.60
2019-03-18T02:24:38.690Z,74.50
2019-03-18T02:27:08.041Z,74.60
2019-03-18T02:29:37.448Z,74.40
2019-03-18T02:32:06.786Z,74.50
2019-03-18T02:34:36.122Z,74.40
2019-03-18T02:37:05.457Z,73.40
2019-03-18T02:39:34.882Z,73.70
2019-03-18T02:42:04.294Z,73.80
2019-03-18T02:44:33.646Z,74.10
2019-03-18T02:47:03.042Z,73.30
2019-03-18T02:49:32.580Z,73.80
2019-03-18T02:52:01.936Z,73.80
2019-03-18T02:54:31.318Z,74.50
2019-03-18T02:57:00.597Z,73.50
2019-03-18T02:59:29.961Z,73.70
2019-03-18T03:01:59.323Z,73.40
2019-03-18T03:04:28.674Z,73.30
2019-03-18T03:06:57.951Z,72.90
2019-03-18T03:09:27.226Z,73.30
2019-03-18T03:11:56.557Z,73.60
2019-03-18T03:14:25.994Z,73.70
2019-03-18T03:16:55.412Z,73.50
2019-03-18T03:19:24.776Z,73.20
2019-03-18T03:21:54.154Z,72.90
2019-03-18T03:24:23.547Z,73.30
2019-03-18T03:26:52.926Z,73.60
2019-03-18T03:29:22.396Z,73.40
2019-03-18T03:31:51.763Z,74.50
2019-03-18T03:34:21.156Z,73.80
2019-03-18T03:36:50.523Z,73.40
2019-03-18T03:39:19.866Z,72.80
2019-03-18T03:41:49.283Z,73.40
2019-03-18T03:44:18.762Z,73.30
2019-03-18T03:46:48.117Z,72.90
2019-03-18T03:49:17.495Z,72.90
2019-03-18T03:51:46.984Z,72.70
2019-03-18T03:54:17.018Z,72.90
2019-03-18T03:56:46.707Z,72.60
2019-03-18T03:59:16.313Z,73.20
2019-03-18T04:01:45.687Z,72.80
2019-03-18T04:04:15.089Z,72.50
2019-03-18T04:06:44.793Z,73.00
2019-03-18T04:09:14.636Z,73.60
2019-03-18T04:11:44.067Z,73.40
2019-03-18T04:14:13.351Z,73.50
2019-03-18T04:16:49.706Z,73.60
2019-03-18T04:19:13.918Z,73.80
2019-03-18T04:21:43.213Z,73.60
2019-03-18T04:24:12.587Z,73.70
2019-03-18T04:26:41.879Z,73.30
2019-03-18T04:29:11.214Z,73.40
2019-03-18T04:31:40.577Z,73.30
2019-03-18T04:34:09.979Z,73.20
2019-03-18T04:36:39.258Z,73.30
2019-03-18T04:39:08.965Z,72.70
2019-03-18T04:41:38.321Z,72.90
2019-03-18T04:44:07.629Z,73.00
2019-03-18T04:46:36.967Z,72.70
2019-03-18T04:49:06.241Z,72.60
2019-03-18T04:51:35.575Z,73.20
2019-03-18T04:54:04.953Z,73.60
2019-03-18T04:56:34.341Z,73.40
2019-03-18T04:59:03.637Z,73.50
2019-03-18T05:01:32.941Z,73.30
2019-03-18T05:04:02.263Z,73.10
2019-03-18T05:06:31.645Z,72.70
2019-03-18T05:09:00.985Z,72.50
2019-03-18T05:11:30.321Z,72.10
2019-03-18T05:13:59.660Z,72.20
2019-03-18T05:16:29.004Z,72.00
2019-03-18T05:18:58.389Z,71.90
2019-03-18T05:21:27.792Z,72.20
2019-03-18T05:23:57.118Z,72.00
2019-03-18T05:26:26.530Z,71.70
2019-03-18T05:28:55.837Z,72.10
2019-03-18T05:31:25.209Z,71.60
2019-03-18T05:33:54.541Z,71.30
2019-03-18T05:36:23.964Z,71.90
2019-03-18T05:38:53.306Z,71.60
2019-03-18T05:41:22.641Z,71.90
2019-03-18T05:43:51.921Z,71.80
2019-03-18T05:46:21.269Z,71.30
2019-03-18T05:48:50.557Z,70.90
2019-03-18T05:51:19.825Z,70.70
2019-03-18T05:53:49.277Z,71.10
2019-03-18T05:56:18.659Z,70.90
2019-03-18T05:58:47.938Z,70.30
2019-03-18T06:01:17.302Z,71.80
2019-03-18T06:03:46.679Z,70.40
2019-03-18T06:06:15.963Z,69.60
2019-03-18T06:08:45.287Z,69.00
2019-03-18T06:11:14.569Z,68.90
2019-03-18T06:13:43.909Z,68.80
2019-03-18T06:16:13.181Z,68.70
2019-03-18T06:18:42.473Z,68.80
2019-03-18T06:21:11.785Z,67.90
2019-03-18T06:23:41.093Z,68.70
2019-03-18T06:26:10.450Z,67.40
2019-03-18T06:28:39.732Z,67.40
2019-03-18T06:31:09.115Z,67.70
2019-03-18T06:33:38.437Z,67.10
2019-03-18T06:36:07.769Z,67.00
2019-03-18T06:38:37.109Z,66.60
2019-03-18T06:41:06.393Z,66.80
2019-03-18T06:43:35.730Z,66.60
2019-03-18T06:46:05.018Z,66.70
2019-03-18T06:48:34.374Z,66.60
2019-03-18T06:51:03.661Z,66.10
2019-03-18T06:53:33.008Z,66.20
2019-03-18T06:56:02.393Z,65.40
2019-03-18T06:58:31.720Z,65.30
2019-03-18T07:01:01.093Z,65.40
2019-03-18T07:03:30.434Z,65.00
2019-03-18T07:05:59.768Z,64.90
2019-03-18T07:08:29.050Z,64.60
2019-03-18T07:10:58.377Z,64.90
2019-03-18T07:13:28.749Z,64.40
2019-03-18T07:16:00.155Z,64.60
2019-03-18T07:18:29.195Z,64.90
2019-03-18T07:20:58.554Z,64.70
2019-03-18T07:23:27.945Z,64.70
2019-03-18T07:25:57.361Z,64.00
2019-03-18T07:28:26.701Z,64.20
2019-03-18T07:30:56.033Z,63.90
2019-03-18T07:33:25.473Z,64.40
2019-03-18T07:35:54.818Z,63.50
2019-03-18T07:38:24.260Z,64.00
2019-03-18T07:40:54.001Z,64.00
2019-03-18T07:43:23.342Z,64.00
2019-03-18T07:45:52.617Z,63.60
2019-03-18T07:48:30.980Z,63.70
2019-03-18T07:50:53.184Z,62.70
2019-03-18T07:53:22.558Z,62.60
2019-03-18T07:55:51.879Z,62.90
2019-03-18T07:58:22.618Z,62.80
2019-03-18T08:00:52.096Z,62.90
2019-03-18T08:03:22.038Z,62.80
2019-03-18T08:05:51.452Z,63.80
2019-03-18T08:08:20.816Z,62.70
2019-03-18T08:10:50.318Z,61.80
2019-03-18T08:13:19.734Z,62.40
2019-03-18T08:15:49.047Z,62.30
2019-03-18T08:18:18.359Z,61.90
2019-03-18T08:20:47.798Z,62.30
2019-03-18T08:23:17.196Z,62.20
2019-03-18T08:25:46.621Z,61.60
2019-03-18T08:28:16.073Z,61.70
2019-03-18T08:30:45.431Z,61.50
2019-03-18T08:33:14.781Z,61.90
2019-03-18T08:35:44.111Z,61.70
2019-03-18T08:38:13.433Z,61.90
2019-03-18T08:40:42.761Z,62.00
2019-03-18T08:43:12.062Z,61.60
2019-03-18T08:45:41.417Z,62.20
2019-03-18T08:48:10.769Z,62.50
2019-03-18T08:50:40.141Z,61.60
2019-03-18T08:53:09.461Z,61.20
2019-03-18T08:55:38.797Z,62.00
2019-03-18T08:58:08.078Z,62.30
2019-03-18T09:00:37.798Z,62.90
2019-03-18T09:03:07.114Z,61.50
2019-03-18T09:05:36.693Z,61.00
2019-03-18T09:08:06.681Z,61.40
2019-03-18T09:10:36.231Z,61.10
2019-03-18T09:13:06.297Z,61.10
2019-03-18T09:15:35.656Z,61.40
2019-03-18T09:18:05.584Z,61.60
2019-03-18T09:20:35.043Z,61.70
2019-03-18T09:23:04.494Z,61.40
2019-03-18T09:25:33.942Z,60.90
2019-03-18T09:28:04.361Z,61.40
2019-03-18T09:30:33.698Z,61.80
2019-03-18T09:33:03.041Z,61.40
2019-03-18T09:35:32.380Z,60.70
2019-03-18T09:38:01.670Z,60.50
2019-03-18T09:40:31.009Z,60.50
2019-03-18T09:43:00.294Z,60.70
2019-03-18T09:45:29.655Z,60.60
2019-03-18T09:47:59.005Z,60.10
2019-03-18T09:50:28.340Z,59.90
2019-03-18T09:52:57.686Z,59.60
2019-03-18T09:55:27.022Z,59.80
2019-03-18T09:57:56.300Z,59.50
2019-03-18T10:00:25.625Z,58.90
2019-03-18T10:02:54.952Z,59.60
2019-03-18T10:05:24.480Z,59.00
2019-03-18T10:07:53.819Z,59.10
2019-03-18T10:10:23.104Z,58.80
2019-03-18T10:12:52.433Z,58.10
2019-03-18T10:15:21.767Z,58.00
2019-03-18T10:17:51.051Z,58.50
2019-03-18T10:20:20.753Z,57.30
2019-03-18T10:22:50.036Z,58.70
2019-03-18T10:25:19.383Z,58.50
2019-03-18T10:27:48.730Z,57.40
2019-03-18T10:30:18.052Z,57.70
2019-03-18T10:32:47.407Z,57.20
2019-03-18T10:35:16.759Z,56.70
2019-03-18T10:37:47.236Z,56.20
2019-03-18T10:40:17.008Z,57.00
2019-03-18T10:42:46.355Z,56.60
2019-03-18T10:45:15.657Z,58.00
2019-03-18T10:47:45.150Z,57.40
2019-03-18T10:50:14.934Z,56.10
2019-03-18T10:52:44.328Z,56.00
2019-03-18T10:55:14.182Z,56.30
2019-03-18T10:57:44.131Z,56.10
2019-03-18T11:00:14.460Z,55.70
2019-03-18T11:02:45.251Z,55.30
2019-03-18T11:05:15.609Z,55.10
2019-03-18T11:07:44.985Z,55.30
2019-03-18T11:10:14.445Z,55.90
2019-03-18T11:12:44.317Z,55.70
2019-03-18T11:15:13.738Z,55.00
2019-03-18T11:17:43.136Z,55.10
2019-03-18T11:20:13.073Z,55.00
2019-03-18T11:22:42.346Z,55.00
2019-03-18T11:25:12.233Z,54.60
2019-03-18T11:27:41.925Z,54.90
2019-03-18T11:30:12.605Z,54.60
2019-03-18T11:32:41.886Z,53.60
2019-03-18T11:35:11.338Z,52.90
2019-03-18T11:37:40.614Z,53.40
2019-03-18T11:40:11.709Z,53.20
2019-03-18T11:42:42.525Z,52.00
2019-03-18T11:45:12.299Z,50.90
2019-03-18T11:47:41.642Z,50.50
2019-03-18T11:50:11.976Z,50.40
2019-03-18T11:52:41.974Z,51.00
2019-03-18T11:55:13.137Z,50.10
2019-03-18T11:57:42.415Z,51.10
2019-03-18T12:00:13.897Z,50.70
2019-03-18T12:02:43.263Z,50.70
2019-03-18T12:05:14.478Z,50.50
2019-03-18T12:07:43.850Z,50.90
2019-03-18T12:10:15.038Z,50.30
2019-03-18T12:12:44.314Z,49.00
2019-03-18T12:15:14.432Z,49.60
2019-03-18T12:17:43.714Z,50.40
2019-03-18T12:20:23.650Z,49.80
2019-03-18T12:22:45.278Z,48.70
2019-03-18T12:25:14.733Z,47.90
2019-03-18T12:27:44.095Z,48.70
2019-03-18T12:30:16.890Z,50.30
2019-03-18T12:32:46.407Z,49.50
2019-03-18T12:35:15.754Z,49.50
2019-03-18T12:37:45.537Z,50.80
2019-03-18T12:40:15.297Z,50.00
2019-03-18T12:42:44.590Z,50.10
2019-03-18T12:45:14.587Z,49.00
2019-03-18T12:47:43.900Z,48.90
2019-03-18T12:50:15.258Z,49.00
2019-03-18T12:52:44.672Z,48.00
2019-03-18T12:55:14.483Z,49.00
2019-03-18T12:57:43.932Z,49.20
2019-03-18T13:00:19.547Z,47.40
2019-03-18T13:02:48.910Z,47.50
2019-03-18T13:05:18.495Z,48.20
2019-03-18T13:07:48.885Z,46.20
2019-03-18T13:10:21.228Z,46.00
2019-03-18T13:12:49.259Z,40.20
2019-03-18T13:15:18.637Z,41.30
2019-03-18T13:17:48.418Z,41.00
2019-03-18T13:20:17.792Z,39.70
2019-03-18T13:22:47.071Z,39.90
2019-03-18T13:25:16.422Z,41.70
2019-03-18T13:27:45.738Z,43.70
2019-03-18T13:30:17.090Z,45.90
2019-03-18T13:32:46.456Z,46.50
2019-03-18T13:35:15.814Z,47.20
2019-03-18T13:37:45.135Z,46.90
2019-03-18T13:40:14.610Z,48.10
2019-03-18T13:42:44.636Z,48.10
2019-03-18T13:45:15.482Z,48.50
2019-03-18T13:47:44.786Z,48.30
2019-03-18T13:50:15.314Z,47.50
2019-03-18T13:52:44.646Z,47.80
2019-03-18T13:55:14.381Z,49.20
2019-03-18T13:57:44.054Z,48.80
2019-03-18T14:00:14.765Z,49.00
2019-03-18T14:02:44.105Z,50.40
2019-03-18T14:05:13.499Z,51.70
2019-03-18T14:07:42.881Z,53.00
2019-03-18T14:10:13.778Z,53.90
2019-03-18T14:12:43.572Z,55.40
2019-03-18T14:15:14.638Z,56.20
2019-03-18T14:17:43.985Z,56.40
2019-03-18T14:20:14.571Z,56.60
2019-03-18T14:22:44.943Z,57.30
2019-03-18T14:25:14.239Z,58.60
2019-03-18T14:27:43.644Z,58.40
2019-03-18T14:30:15.215Z,58.60
2019-03-18T14:32:44.602Z,58.50
2019-03-18T14:35:21.520Z,58.80
2019-03-18T14:37:50.826Z,58.50
2019-03-18T14:40:20.290Z,59.00
2019-03-18T14:42:50.226Z,58.90
2019-03-18T14:45:19.533Z,59.00
2019-03-18T14:47:48.806Z,59.40
2019-03-18T14:50:19.641Z,59.90
2019-03-18T14:52:48.926Z,60.20
2019-03-18T14:55:18.275Z,60.20
2019-03-18T14:57:47.693Z,60.10
2019-03-18T15:00:18.860Z,60.60
2019-03-18T15:02:48.158Z,60.70
2019-03-18T15:05:18.199Z,60.80
2019-03-18T15:07:47.548Z,61.10
2019-03-18T15:10:17.050Z,61.10
2019-03-18T15:12:46.413Z,61.40
2019-03-18T15:15:16.706Z,61.30
2019-03-18T15:17:45.998Z,61.70
2019-03-18T15:20:15.372Z,62.00
2019-03-18T15:22:44.651Z,61.80
2019-03-18T15:25:19.029Z,61.80
2019-03-18T15:27:48.373Z,62.10
2019-03-18T15:30:18.886Z,62.00
2019-03-18T15:32:48.651Z,62.60
2019-03-18T15:35:18.371Z,62.40
2019-03-18T15:37:47.678Z,62.90
2019-03-18T15:40:18.900Z,63.10
2019-03-18T15:42:48.238Z,62.30
2019-03-18T15:45:18.314Z,63.30
2019-03-18T15:47:47.655Z,63.10
2019-03-18T15:50:18.346Z,62.90
2019-03-18T15:52:47.774Z,64.10
2019-03-18T15:55:17.121Z,62.80
2019-03-18T15:57:46.406Z,63.20
2019-03-18T16:00:17.202Z,63.40
2019-03-18T16:02:46.616Z,63.40
2019-03-18T16:05:16.331Z,63.50
2019-03-18T16:07:45.682Z,63.10
2019-03-18T16:10:15.738Z,63.40
2019-03-18T16:12:45.048Z,63.60
2019-03-18T16:15:14.528Z,63.40
2019-03-18T16:17:44.225Z,63.30
2019-03-18T16:20:14.365Z,62.10
2019-03-18T16:22:44.105Z,62.20
2019-03-18T16:25:13.417Z,62.10
2019-03-18T16:27:42.817Z,61.30
2019-03-18T16:30:14.325Z,60.60
2019-03-18T16:32:43.765Z,60.20
2019-03-18T16:35:15.954Z,60.90
2019-03-18T16:37:44.672Z,60.40
2019-03-18T16:40:14.686Z,60.50
2019-03-18T16:42:44.097Z,60.40
2019-03-18T16:45:14.273Z,61.00
2019-03-18T16:47:43.607Z,60.30
2019-03-18T16:50:14.463Z,60.50
2019-03-18T16:52:43.798Z,60.70
2019-03-18T16:55:13.753Z,61.40
2019-03-18T16:57:43.183Z,61.40
2019-03-18T17:00:15.691Z,61.40
2019-03-18T17:02:45.377Z,61.20
2019-03-18T17:05:15.143Z,61.40
2019-03-18T17:07:44.615Z,61.00
2019-03-18T17:10:14.171Z,60.90
2019-03-18T17:12:43.505Z,61.20
2019-03-18T17:15:12.970Z,61.30
2019-03-18T17:17:42.321Z,61.20
2019-03-18T17:20:12.544Z,61.20
2019-03-18T17:22:48.765Z,60.60
2019-03-18T17:25:15.129Z,60.50
2019-03-18T17:27:44.604Z,60.60
2019-03-18T17:30:15.994Z,60.70
2019-03-18T17:32:45.412Z,60.40
2019-03-18T17:35:14.844Z,60.20
2019-03-18T17:37:44.153Z,59.90
2019-03-18T17:40:14.056Z,60.10
2019-03-18T17:42:43.549Z,60.10
2019-03-18T17:45:13.794Z,60.50
2019-03-18T17:47:43.189Z,60.30
2019-03-18T17:50:14.586Z,60.80
2019-03-18T17:52:44.013Z,61.40
2019-03-18T17:55:13.436Z,61.70
2019-03-18T17:57:43.321Z,61.70
2019-03-18T18:00:17.333Z,61.80
2019-03-18T18:02:46.718Z,61.80
2019-03-18T18:05:16.077Z,62.00
2019-03-18T18:07:45.413Z,61.80
2019-03-18T18:10:14.777Z,61.50
2019-03-18T18:12:44.203Z,61.50
2019-03-18T18:15:13.495Z,61.60
2019-03-18T18:17:42.835Z,61.70
2019-03-18T18:20:12.334Z,61.70
2019-03-18T18:22:41.661Z,61.80
2019-03-18T18:25:11.156Z,61.80
2019-03-18T18:27:41.132Z,62.10
2019-03-18T18:30:11.564Z,62.50
2019-03-18T18:32:40.949Z,62.40
2019-03-18T18:35:10.305Z,62.70
2019-03-18T18:37:39.704Z,63.00
2019-03-18T18:40:10.223Z,63.20
2019-03-18T18:42:39.625Z,63.20
2019-03-18T18:45:11.820Z,63.30
2019-03-18T18:47:41.562Z,63.20
2019-03-18T18:50:10.955Z,63.00
2019-03-18T18:52:40.309Z,63.00
2019-03-18T18:55:10.510Z,63.10
2019-03-18T18:57:40.422Z,62.80
2019-03-18T19:00:13.014Z,63.10
2019-03-18T19:02:42.434Z,63.30
2019-03-18T19:05:12.919Z,63.10
2019-03-18T19:07:42.273Z,63.00
2019-03-18T19:10:12.372Z,63.00
2019-03-18T19:12:41.833Z,63.10
2019-03-18T19:15:16.685Z,63.20
2019-03-18T19:17:47.049Z,63.30
2019-03-18T19:20:16.913Z,63.10
2019-03-18T19:22:46.262Z,63.50
2019-03-18T19:25:15.651Z,64.00
2019-03-18T19:27:45.058Z,64.10
2019-03-18T19:30:18.489Z,64.00
2019-03-18T19:32:47.897Z,64.20
2019-03-18T19:35:17.226Z,64.50
2019-03-18T19:37:46.522Z,64.60
2019-03-18T19:40:15.885Z,64.50
2019-03-18T19:42:45.216Z,64.80
2019-03-18T19:45:14.577Z,65.40
2019-03-18T19:47:43.941Z,65.90
2019-03-18T19:50:15.338Z,66.20
2019-03-18T19:52:44.808Z,66.40
2019-03-18T19:55:14.231Z,66.80
2019-03-18T19:57:43.609Z,66.70
2019-03-18T20:00:15.427Z,67.00
2019-03-18T20:02:44.766Z,68.00
2019-03-18T20:05:15.828Z,67.00
2019-03-18T20:07:46.119Z,67.10
2019-03-18T20:10:16.502Z,67.20
2019-03-18T20:12:45.903Z,67.00
2019-03-18T20:15:15.335Z,67.10
2019-03-18T20:17:44.664Z,67.30
2019-03-18T20:20:14.946Z,67.20
2019-03-18T20:22:45.377Z,67.30
2019-03-18T20:25:16.779Z,67.50
2019-03-18T20:27:46.163Z,67.50
2019-03-18T20:30:21.661Z,67.80
2019-03-18T20:32:51.355Z,67.50
2019-03-18T20:35:21.154Z,67.80
2019-03-18T20:37:51.841Z,67.90
2019-03-18T20:40:21.920Z,67.80
2019-03-18T20:42:51.369Z,67.80
2019-03-18T20:45:20.759Z,67.90
2019-03-18T20:47:50.134Z,68.00
2019-03-18T20:50:19.525Z,67.90
2019-03-18T20:52:48.939Z,67.90
2019-03-18T20:55:18.985Z,68.20
2019-03-18T20:57:48.362Z,68.30
2019-03-18T21:00:18.801Z,68.70
2019-03-18T21:02:48.147Z,68.90
2019-03-18T21:05:17.825Z,69.10
2019-03-18T21:07:47.267Z,69.30
2019-03-18T21:10:16.729Z,69.50
2019-03-18T21:12:46.269Z,69.00
2019-03-18T21:15:16.163Z,69.10
2019-03-18T21:17:45.931Z,69.00
2019-03-18T21:20:16.508Z,69.00
2019-03-18T21:22:46.350Z,69.20
2019-03-18T21:25:16.263Z,68.90
2019-03-18T21:27:46.231Z,68.90
2019-03-18T21:30:16.284Z,68.80
2019-03-18T21:32:45.742Z,68.80
2019-03-18T21:35:15.025Z,68.70
2019-03-18T21:37:44.785Z,68.80
2019-03-18T21:40:14.682Z,68.90
2019-03-18T21:42:44.040Z,69.00
2019-03-18T21:45:15.381Z,69.20
2019-03-18T21:47:44.727Z,69.30
2019-03-18T21:50:14.935Z,69.40
2019-03-18T21:52:44.279Z,69.50
2019-03-18T21:55:14.113Z,69.40
2019-03-18T21:57:43.445Z,70.30
2019-03-18T22:00:15.109Z,69.60
2019-03-18T22:02:44.424Z,69.70
2019-03-18T22:05:13.733Z,69.70
2019-03-18T22:07:43.074Z,69.90
2019-03-18T22:10:12.907Z,69.80
2019-03-18T22:12:42.241Z,69.50
2019-03-18T22:15:12.045Z,69.60
2019-03-18T22:17:41.391Z,69.30
2019-03-18T22:20:12.813Z,69.10
2019-03-18T22:22:42.233Z,69.30
2019-03-18T22:25:12.574Z,69.10
2019-03-18T22:27:41.858Z,69.20
2019-03-18T22:30:11.966Z,69.30
2019-03-18T22:32:41.370Z,69.40
2019-03-18T22:35:12.046Z,69.10
2019-03-18T22:37:41.506Z,69.30
2019-03-18T22:40:11.193Z,69.30
2019-03-18T22:42:40.572Z,69.40
2019-03-18T22:45:10.345Z,69.50
2019-03-18T22:47:39.741Z,69.50
2019-03-18T22:50:09.118Z,69.30
2019-03-18T22:52:38.525Z,69.30
2019-03-18T22:55:08.576Z,69.30
2019-03-18T22:57:38.880Z,69.40
2019-03-18T23:00:17.073Z,69.00
2019-03-18T23:02:46.489Z,68.90
2019-03-18T23:05:15.776Z,69.30
2019-03-18T23:07:45.101Z,69.30
2019-03-18T23:10:14.394Z,69.60
2019-03-18T23:12:43.798Z,69.20
2019-03-18T23:15:13.594Z,69.50
2019-03-18T23:17:43.262Z,69.50
2019-03-18T23:20:13.178Z,69.80
2019-03-18T23:22:42.507Z,69.90
2019-03-18T23:25:11.800Z,69.80
2019-03-18T23:27:41.237Z,70.00
2019-03-18T23:30:10.713Z,70.30
2019-03-18T23:32:40.037Z,70.40
2019-03-18T23:35:10.852Z,70.30
2019-03-18T23:37:40.298Z,70.20
2019-03-18T23:40:10.345Z,70.90
2019-03-18T23:42:39.725Z,70.20
2019-03-18T23:45:10.196Z,70.40
2019-03-18T23:47:39.501Z,70.30
2019-03-18T23:50:09.265Z,70.10
2019-03-18T23:52:38.554Z,70.10
2019-03-18T23:55:18.135Z,70.20
2019-03-18T23:57:39.352Z,70.20
